createdAt,value
2022-11-23T00:00:45.251Z,10.73
2022-11-23T00:03:16.204Z,10.55
2022-11-23T00:05:43.636Z,10.55
2022-11-23T00:08:11.002Z,12.50
2022-11-23T00:10:38.566Z,9.85
2022-11-23T00:13:05.975Z,10.25
2022-11-23T00:15:33.415Z,10.73
2022-11-23T00:18:00.861Z,10.98
2022-11-23T00:20:28.333Z,10.57
2022-11-23T00:22:56.034Z,9.90
2022-11-23T00:25:23.470Z,10.38
2022-11-23T00:27:50.850Z,10.00
2022-11-23T00:30:18.465Z,9.38
2022-11-23T00:32:46.732Z,9.40
2022-11-23T00:35:14.227Z,8.75
2022-11-23T00:37:41.608Z,8.05
2022-11-23T00:40:09.420Z,8.70
2022-11-23T00:42:38.411Z,8.13
2022-11-23T00:45:06.083Z,8.82
2022-11-23T00:47:33.490Z,8.10
2022-11-23T00:50:00.940Z,8.88
2022-11-23T00:52:28.331Z,9.43
2022-11-23T00:54:55.778Z,9.27
2022-11-23T00:57:23.224Z,9.85
2022-11-23T00:59:50.735Z,10.55
2022-11-23T01:02:18.114Z,10.07
2022-11-23T01:04:45.595Z,9.98
2022-11-23T01:07:13.099Z,11.43
2022-11-23T01:09:40.711Z,10.80
2022-11-23T01:12:08.240Z,11.40
2022-11-23T01:14:35.808Z,11.60
2022-11-23T01:17:05.418Z,11.40
2022-11-23T01:19:35.574Z,12.02
2022-11-23T01:22:03.568Z,11.40
2022-11-23T01:24:31.028Z,11.75
2022-11-23T01:27:00.800Z,10.93
2022-11-23T01:29:29.072Z,11.75
2022-11-23T01:32:00.382Z,12.35
2022-11-23T01:34:27.804Z,12.15
2022-11-23T01:36:55.185Z,12.20
2022-11-23T01:39:22.691Z,14.90
2022-11-23T01:41:50.258Z,11.98
2022-11-23T01:44:23.951Z,12.25
2022-11-23T01:46:55.244Z,12.82
2022-11-23T01:49:23.360Z,12.40
2022-11-23T01:51:51.819Z,12.73
2022-11-23T01:54:25.565Z,12.85
2022-11-23T01:56:58.284Z,12.35
2022-11-23T01:59:26.611Z,12.13
2022-11-23T02:01:54.612Z,12.25
2022-11-23T02:04:27.974Z,12.15
2022-11-23T02:06:56.011Z,12.60
2022-11-23T02:09:23.517Z,12.82
2022-11-23T02:11:52.565Z,12.20
2022-11-23T02:14:23.381Z,12.60
2022-11-23T02:16:56.225Z,12.55
2022-11-23T02:19:26.846Z,13.10
2022-11-23T02:21:54.947Z,12.38
2022-11-23T02:24:26.283Z,12.52
2022-11-23T02:26:53.880Z,12.38
2022-11-23T02:29:21.418Z,11.75
2022-11-23T02:31:48.853Z,12.40
2022-11-23T02:34:17.636Z,12.05
2022-11-23T02:36:49.150Z,11.82
2022-11-23T02:39:18.278Z,13.48
2022-11-23T02:41:48.739Z,12.75
2022-11-23T02:44:22.265Z,13.75
2022-11-23T02:46:50.669Z,14.38
2022-11-23T02:49:18.072Z,13.85
2022-11-23T02:51:45.497Z,13.50
2022-11-23T02:54:13.206Z,12.63
2022-11-23T02:56:40.890Z,14.32
2022-11-23T02:59:08.925Z,14.25
2022-11-23T03:01:36.807Z,13.85
2022-11-23T03:04:06.875Z,13.65
2022-11-23T03:06:34.334Z,14.00
2022-11-23T03:09:01.749Z,14.75
2022-11-23T03:11:29.262Z,15.43
2022-11-23T03:13:56.784Z,14.60
2022-11-23T03:16:24.681Z,15.70
2022-11-23T03:18:52.442Z,15.52
2022-11-23T03:21:20.170Z,15.25
2022-11-23T03:23:47.688Z,15.15
2022-11-23T03:26:15.201Z,15.40
2022-11-23T03:28:51.441Z,15.10
2022-11-23T03:31:20.397Z,15.07
2022-11-23T03:33:48.910Z,15.30
2022-11-23T03:36:16.554Z,15.85
2022-11-23T03:38:47.706Z,15.32
2022-11-23T03:41:28.605Z,14.70
2022-11-23T03:43:56.912Z,14.85
2022-11-23T03:46:24.338Z,15.90
2022-11-23T03:48:51.970Z,15.65
2022-11-23T03:51:19.502Z,15.90
2022-11-23T03:53:47.008Z,16.15
2022-11-23T03:56:15.063Z,16.38
2022-11-23T03:58:46.367Z,16.52
2022-11-23T04:01:15.190Z,16.30
2022-11-23T04:03:45.455Z,16.70
2022-11-23T04:06:19.694Z,15.77
2022-11-23T04:08:49.955Z,15.27
2022-11-23T04:11:26.696Z,17.27
2022-11-23T04:13:54.267Z,15.95
2022-11-23T04:16:21.807Z,16.73
2022-11-23T04:18:50.196Z,17.02
2022-11-23T04:21:17.721Z,16.88
2022-11-23T04:23:45.639Z,16.88
2022-11-23T04:26:15.405Z,17.08
2022-11-23T04:28:46.126Z,16.92
2022-11-23T04:31:13.965Z,17.30
2022-11-23T04:33:51.804Z,16.83
2022-11-23T04:36:20.962Z,17.55
2022-11-23T04:38:48.520Z,15.95
2022-11-23T04:41:19.520Z,17.08
2022-11-23T04:43:48.690Z,17.00
2022-11-23T04:46:16.746Z,17.33
2022-11-23T04:48:46.188Z,18.27
2022-11-23T04:51:16.695Z,19.92
2022-11-23T04:53:44.293Z,16.80
2022-11-23T04:56:11.892Z,17.30
2022-11-23T04:58:41.230Z,18.65
2022-11-23T05:01:08.995Z,18.25
2022-11-23T05:03:45.929Z,17.65
2022-11-23T05:06:13.424Z,18.42
2022-11-23T05:08:43.117Z,19.30
2022-11-23T05:11:23.137Z,18.40
2022-11-23T05:13:51.440Z,17.83
2022-11-23T05:16:18.973Z,18.13
2022-11-23T05:18:46.436Z,18.10
2022-11-23T05:21:13.881Z,18.38
2022-11-23T05:23:42.066Z,17.77
2022-11-23T05:26:09.565Z,17.88
2022-11-23T05:28:40.604Z,20.40
2022-11-23T05:31:11.642Z,19.50
2022-11-23T05:33:39.430Z,19.33
2022-11-23T05:36:09.575Z,18.65
2022-11-23T05:38:39.380Z,18.83
2022-11-23T05:41:12.968Z,19.30
2022-11-23T05:43:43.293Z,19.10
2022-11-23T05:46:16.227Z,19.38
2022-11-23T05:48:45.304Z,18.05
2022-11-23T05:51:13.802Z,18.52
2022-11-23T05:53:44.965Z,21.08
2022-11-23T05:56:18.758Z,20.85
2022-11-23T05:59:01.503Z,19.95
2022-11-23T06:01:28.988Z,21.00
2022-11-23T06:04:00.871Z,19.98
2022-11-23T06:06:31.342Z,19.63
2022-11-23T06:08:59.031Z,19.75
2022-11-23T06:11:26.477Z,20.38
2022-11-23T06:13:57.803Z,19.88
2022-11-23T06:16:25.665Z,21.65
2022-11-23T06:19:02.620Z,21.33
2022-11-23T06:21:30.155Z,20.73
2022-11-23T06:23:57.633Z,21.35
2022-11-23T06:26:27.040Z,22.77
2022-11-23T06:28:55.282Z,21.73
2022-11-23T06:31:23.098Z,21.30
2022-11-23T06:33:50.633Z,21.77
2022-11-23T06:36:18.201Z,21.48
2022-11-23T06:38:49.433Z,19.92
2022-11-23T06:41:22.308Z,21.80
2022-11-23T06:43:50.929Z,20.75
2022-11-23T06:46:33.578Z,20.48
2022-11-23T06:49:01.100Z,21.23
2022-11-23T06:51:28.566Z,20.63
2022-11-23T06:53:56.049Z,20.55
2022-11-23T06:56:23.501Z,19.30
2022-11-23T06:58:51.022Z,19.35
2022-11-23T07:01:22.975Z,20.40
2022-11-23T07:04:10.740Z,20.50
2022-11-23T07:06:46.317Z,19.70
2022-11-23T07:09:24.985Z,20.10
2022-11-23T07:12:11.021Z,19.60
2022-11-23T07:14:38.753Z,19.80
2022-11-23T07:17:06.166Z,19.73
2022-11-23T07:19:36.181Z,22.30
2022-11-23T07:22:03.837Z,19.70
2022-11-23T07:24:37.981Z,22.40
2022-11-23T07:27:08.250Z,22.98
2022-11-23T07:29:36.085Z,20.40
2022-11-23T07:32:03.690Z,23.52
2022-11-23T07:34:31.149Z,20.60
2022-11-23T07:37:01.999Z,21.73
2022-11-23T07:39:55.852Z,19.92
2022-11-23T07:42:42.863Z,18.48
2022-11-23T07:45:09.371Z,19.85
2022-11-23T07:47:38.674Z,20.70
2022-11-23T07:50:07.387Z,19.90
2022-11-23T07:52:35.849Z,20.95
2022-11-23T07:55:03.537Z,19.33
2022-11-23T07:57:30.955Z,19.80
2022-11-23T07:59:58.453Z,20.30
2022-11-23T08:02:25.938Z,19.77
2022-11-23T08:04:53.397Z,20.83
2022-11-23T08:07:20.829Z,19.85
2022-11-23T08:09:48.391Z,20.23
2022-11-23T08:12:15.733Z,19.10
2022-11-23T08:14:43.364Z,21.15
2022-11-23T08:17:10.732Z,23.52
2022-11-23T08:19:38.180Z,25.67
2022-11-23T08:22:05.603Z,26.42
2022-11-23T08:24:33.203Z,25.38
2022-11-23T08:27:00.840Z,20.38
2022-11-23T08:29:28.897Z,21.63
2022-11-23T08:31:56.295Z,20.88
2022-11-23T08:34:23.774Z,20.52
2022-11-23T08:36:51.198Z,21.33
2022-11-23T08:39:19.452Z,20.00
2022-11-23T08:41:46.897Z,19.85
2022-11-23T08:44:14.385Z,20.17
2022-11-23T08:46:41.885Z,20.45
2022-11-23T08:49:09.363Z,19.27
2022-11-23T08:51:36.874Z,18.92
2022-11-23T08:54:04.382Z,19.08
2022-11-23T08:56:31.777Z,19.38
2022-11-23T08:58:59.238Z,18.17
2022-11-23T09:01:26.743Z,18.23
2022-11-23T09:03:54.975Z,18.00
2022-11-23T09:06:28.985Z,18.67
2022-11-23T09:08:57.121Z,17.33
2022-11-23T09:11:26.319Z,17.20
2022-11-23T09:13:53.902Z,19.50
2022-11-23T09:16:21.337Z,19.88
2022-11-23T09:18:49.964Z,19.35
2022-11-23T09:21:17.490Z,18.33
2022-11-23T09:23:44.946Z,17.55
2022-11-23T09:26:12.380Z,18.55
2022-11-23T09:28:44.471Z,18.75
2022-11-23T09:31:12.423Z,18.63
2022-11-23T09:33:39.862Z,18.52
2022-11-23T09:36:07.448Z,18.75
2022-11-23T09:41:37.509Z,19.30
2022-11-23T09:44:15.690Z,18.35
2022-11-23T09:46:52.054Z,19.35
2022-11-23T09:49:21.242Z,21.33
2022-11-23T09:51:50.504Z,19.77
2022-11-23T09:54:18.158Z,19.10
2022-11-23T09:56:46.660Z,19.05
2022-11-23T09:59:24.015Z,19.27
2022-11-23T10:01:51.612Z,18.05
2022-11-23T10:04:20.504Z,19.45
2022-11-23T10:06:53.200Z,21.67
2022-11-23T10:09:35.937Z,19.73
2022-11-23T10:12:21.210Z,19.58
2022-11-23T10:14:48.677Z,18.05
2022-11-23T10:17:30.938Z,17.80
2022-11-23T10:19:58.364Z,18.05
2022-11-23T10:22:35.864Z,19.40
2022-11-23T10:25:10.058Z,19.67
2022-11-23T10:27:37.487Z,17.87
2022-11-23T10:30:11.923Z,18.17
2022-11-23T10:32:43.129Z,18.83
2022-11-23T10:35:15.003Z,18.65
2022-11-23T10:37:42.658Z,20.30
2022-11-23T10:40:24.277Z,19.88
2022-11-23T10:42:56.854Z,20.02
2022-11-23T10:45:28.589Z,19.73
2022-11-23T10:48:00.269Z,19.48
2022-11-23T10:50:32.342Z,19.70
2022-11-23T10:53:19.087Z,19.27
2022-11-23T10:55:58.187Z,22.08
2022-11-23T10:58:28.407Z,20.98
2022-11-23T11:01:03.728Z,21.42
2022-11-23T11:03:33.250Z,21.55
2022-11-23T11:06:09.799Z,22.83
2022-11-23T11:08:49.504Z,21.83
2022-11-23T11:11:25.076Z,23.25
2022-11-23T11:13:52.698Z,22.17
2022-11-23T11:16:20.139Z,22.48
2022-11-23T11:18:47.661Z,23.30
2022-11-23T11:21:21.171Z,23.27
2022-11-23T11:23:53.804Z,23.27
2022-11-23T11:26:24.708Z,22.60
2022-11-23T11:28:56.718Z,19.60
2022-11-23T11:31:42.130Z,19.60
2022-11-23T11:34:15.502Z,18.08
2022-11-23T11:36:53.233Z,18.65
2022-11-23T11:39:33.474Z,19.13
2022-11-23T11:42:03.623Z,19.52
2022-11-23T11:44:33.334Z,19.33
2022-11-23T11:47:03.131Z,18.85
2022-11-23T11:49:30.573Z,19.20
2022-11-23T11:52:09.893Z,17.90
2022-11-23T11:54:49.947Z,19.10
2022-11-23T11:57:20.285Z,21.35
2022-11-23T11:59:52.991Z,20.67
2022-11-23T12:02:20.643Z,20.65
2022-11-23T12:04:51.105Z,19.05
2022-11-23T12:07:37.360Z,20.60
2022-11-23T12:10:12.948Z,19.98
2022-11-23T12:12:40.853Z,20.48
2022-11-23T12:15:47.256Z,21.80
2022-11-23T12:18:11.821Z,20.05
2022-11-23T12:20:44.202Z,22.10
2022-11-23T12:23:20.619Z,20.42
2022-11-23T12:26:03.551Z,22.23
2022-11-23T12:28:33.949Z,22.15
2022-11-23T12:31:07.470Z,23.33
2022-11-23T12:33:53.731Z,22.67
2022-11-23T12:36:27.042Z,23.35
2022-11-23T12:39:03.716Z,23.63
2022-11-23T12:41:31.086Z,23.45
2022-11-23T12:44:14.001Z,21.50
2022-11-23T12:46:59.981Z,20.77
2022-11-23T12:49:46.546Z,22.75
2022-11-23T12:52:13.970Z,21.80
2022-11-23T12:55:01.690Z,21.08
2022-11-23T12:57:32.466Z,21.05
2022-11-23T13:00:18.453Z,20.33
2022-11-23T13:02:58.267Z,17.52
2022-11-23T13:05:35.061Z,18.10
2022-11-23T13:08:21.347Z,19.77
2022-11-23T13:10:48.960Z,20.90
2022-11-23T13:13:25.724Z,19.05
2022-11-23T13:16:12.131Z,18.70
2022-11-23T13:18:53.797Z,19.95
2022-11-23T13:21:38.340Z,20.30
2022-11-23T13:24:06.197Z,19.23
2022-11-23T13:26:33.630Z,20.10
2022-11-23T13:29:01.550Z,20.38
2022-11-23T13:31:31.308Z,19.23
2022-11-23T13:34:00.638Z,20.15
2022-11-23T13:36:49.456Z,19.73
2022-11-23T13:39:34.423Z,19.48
2022-11-23T13:42:02.080Z,20.65
2022-11-23T13:44:31.628Z,21.77
2022-11-23T13:47:04.431Z,23.20
2022-11-23T13:49:35.153Z,23.65
2022-11-23T13:52:21.308Z,22.27
2022-11-23T13:55:08.827Z,21.75
2022-11-23T13:57:41.981Z,22.23
2022-11-23T14:00:35.931Z,22.52
2022-11-23T14:03:21.852Z,22.05
2022-11-23T14:05:49.291Z,22.02
2022-11-23T14:08:18.240Z,22.70
2022-11-23T14:10:46.024Z,23.25
2022-11-23T14:13:17.039Z,24.73
2022-11-23T14:15:46.891Z,23.45
2022-11-23T14:18:27.789Z,23.73
2022-11-23T14:21:01.948Z,24.67
2022-11-23T14:23:38.554Z,24.03
2022-11-23T14:26:09.014Z,23.48
2022-11-23T14:28:55.340Z,22.85
2022-11-23T14:31:39.370Z,23.88
2022-11-23T14:34:09.947Z,21.73
2022-11-23T14:36:44.284Z,21.77
2022-11-23T14:39:30.354Z,22.08
2022-11-23T14:42:00.844Z,21.42
2022-11-23T14:44:34.138Z,21.50
2022-11-23T14:47:06.879Z,22.70
2022-11-23T14:49:34.516Z,22.63
2022-11-23T14:52:02.530Z,22.63
2022-11-23T14:54:30.749Z,23.23
2022-11-23T14:57:01.055Z,23.65
2022-11-23T14:59:35.502Z,24.85
2022-11-23T15:02:05.249Z,22.25
2022-11-23T15:04:35.513Z,22.60
2022-11-23T15:07:09.180Z,23.88
2022-11-23T15:09:36.647Z,23.58
2022-11-23T15:12:27.372Z,23.92
2022-11-23T15:14:57.432Z,23.83
2022-11-23T15:17:25.226Z,22.35
2022-11-23T15:19:59.818Z,23.52
2022-11-23T15:22:28.343Z,24.35
2022-11-23T15:24:56.127Z,23.33
2022-11-23T15:27:28.392Z,21.33
2022-11-23T15:30:00.399Z,20.20
2022-11-23T15:32:32.058Z,20.05
2022-11-23T15:35:13.022Z,20.85
2022-11-23T15:37:50.829Z,21.00
2022-11-23T15:40:20.301Z,22.10
2022-11-23T15:42:49.703Z,22.65
2022-11-23T15:45:36.059Z,22.83
2022-11-23T15:48:10.586Z,28.90
2022-11-23T15:50:54.449Z,28.35
2022-11-23T15:53:22.891Z,26.85
2022-11-23T15:55:50.402Z,27.55
2022-11-23T15:58:18.978Z,27.92
2022-11-23T16:00:51.132Z,25.05
2022-11-23T16:03:27.958Z,26.48
2022-11-23T16:06:13.898Z,24.92
2022-11-23T16:08:41.739Z,24.45
2022-11-23T16:11:22.829Z,23.95
2022-11-23T16:13:50.559Z,26.25
2022-11-23T16:16:23.246Z,24.90
2022-11-23T16:18:58.861Z,25.80
2022-11-23T16:21:26.425Z,27.25
2022-11-23T16:23:57.354Z,26.02
2022-11-23T16:26:31.826Z,26.65
2022-11-23T16:28:59.745Z,26.67
2022-11-23T16:31:29.310Z,24.23
2022-11-23T16:33:56.870Z,26.52
2022-11-23T16:36:27.362Z,26.25
2022-11-23T16:38:59.620Z,26.55
2022-11-23T16:43:57.551Z,26.27
2022-11-23T16:46:25.091Z,24.73
2022-11-23T16:48:55.575Z,26.23
2022-11-23T16:51:23.065Z,26.23
2022-11-23T16:54:12.527Z,24.65
2022-11-23T16:56:38.918Z,26.85
2022-11-23T16:59:06.572Z,27.05
2022-11-23T17:01:35.809Z,26.83
2022-11-23T17:04:03.417Z,26.35
2022-11-23T17:06:31.117Z,27.10
2022-11-23T17:09:04.658Z,26.15
2022-11-23T17:11:36.303Z,26.42
2022-11-23T17:14:04.935Z,27.38
2022-11-23T17:16:34.377Z,26.20
2022-11-23T17:19:02.021Z,26.85
2022-11-23T17:21:29.736Z,25.50
2022-11-23T17:23:57.302Z,26.20
2022-11-23T17:26:33.965Z,27.38
2022-11-23T17:29:03.215Z,30.52
2022-11-23T17:31:30.676Z,30.02
2022-11-23T17:33:58.328Z,28.23
2022-11-23T17:36:26.727Z,26.20
2022-11-23T17:38:54.730Z,25.98
2022-11-23T17:41:22.485Z,26.55
2022-11-23T17:43:50.091Z,27.33
2022-11-23T17:46:23.845Z,27.50
2022-11-23T17:48:55.049Z,27.40
2022-11-23T17:51:22.562Z,29.25
2022-11-23T17:53:50.040Z,27.65
2022-11-23T17:56:18.782Z,28.25
2022-11-23T17:58:46.834Z,25.88
2022-11-23T18:01:15.706Z,27.95
2022-11-23T18:03:43.721Z,28.08
2022-11-23T18:06:15.316Z,27.38
2022-11-23T18:08:43.711Z,27.17
2022-11-23T18:11:11.182Z,28.02
2022-11-23T18:13:39.141Z,27.45
2022-11-23T18:16:07.122Z,26.33
2022-11-23T18:18:34.671Z,28.25
2022-11-23T18:21:02.453Z,26.90
2022-11-23T18:23:30.135Z,28.05
2022-11-23T18:26:03.717Z,27.25
2022-11-23T18:28:31.343Z,36.50
2022-11-23T18:30:58.856Z,30.23
2022-11-23T18:33:26.547Z,30.60
2022-11-23T18:35:53.930Z,33.50
2022-11-23T18:38:21.386Z,32.22
2022-11-23T18:40:48.845Z,31.80
2022-11-23T18:43:16.401Z,33.15
2022-11-23T18:45:44.133Z,33.17
2022-11-23T18:48:11.674Z,32.45
2022-11-23T18:50:39.292Z,32.90
2022-11-23T18:53:06.846Z,33.42
2022-11-23T18:55:34.924Z,31.40
2022-11-23T18:58:02.352Z,30.48
2022-11-23T19:00:29.785Z,30.30
2022-11-23T19:03:02.409Z,31.10
2022-11-23T19:05:36.329Z,29.98
2022-11-23T19:08:05.548Z,30.27
2022-11-23T19:10:37.151Z,28.67
2022-11-23T19:13:06.018Z,29.80
2022-11-23T19:15:34.367Z,29.05
2022-11-23T19:18:01.968Z,28.40
2022-11-23T19:20:30.153Z,30.83
2022-11-23T19:22:57.721Z,30.48
2022-11-23T19:25:25.384Z,30.38
2022-11-23T19:27:53.175Z,29.02
2022-11-23T19:30:20.660Z,29.98
2022-11-23T19:32:48.213Z,30.92
2022-11-23T19:35:15.842Z,29.02
2022-11-23T19:37:46.362Z,29.65
2022-11-23T19:40:13.982Z,29.75
2022-11-23T19:42:42.678Z,28.85
2022-11-23T19:45:10.464Z,30.33
2022-11-23T19:47:38.087Z,29.98
2022-11-23T19:50:05.799Z,30.25
2022-11-23T19:52:55.874Z,29.85
2022-11-23T19:55:20.688Z,28.75
2022-11-23T19:57:48.128Z,30.50
2022-11-23T20:00:15.908Z,28.75
2022-11-23T20:02:43.334Z,28.88
2022-11-23T20:05:12.914Z,30.25
2022-11-23T20:07:40.434Z,28.40
2022-11-23T20:10:08.206Z,28.83
2022-11-23T20:12:35.638Z,28.38
2022-11-23T20:15:03.684Z,27.83
2022-11-23T20:17:31.136Z,29.38
2022-11-23T20:19:58.568Z,28.67
2022-11-23T20:22:25.985Z,29.75
2022-11-23T20:24:53.367Z,28.83
2022-11-23T20:27:21.473Z,30.00
2022-11-23T20:29:49.191Z,31.60
2022-11-23T20:32:16.652Z,29.08
2022-11-23T20:34:44.158Z,28.85
2022-11-23T20:37:14.572Z,27.58
2022-11-23T20:39:42.017Z,27.50
2022-11-23T20:42:09.392Z,26.45
2022-11-23T20:44:37.544Z,28.85
2022-11-23T20:47:05.163Z,28.73
2022-11-23T20:49:32.955Z,27.90
2022-11-23T20:52:00.718Z,28.20
2022-11-23T20:54:28.341Z,27.58
2022-11-23T20:56:58.205Z,27.40
2022-11-23T20:59:25.680Z,28.42
2022-11-23T21:01:53.174Z,27.25
2022-11-23T21:04:20.670Z,27.98
2022-11-23T21:06:48.222Z,28.65
2022-11-23T21:09:17.096Z,29.65
2022-11-23T21:12:03.118Z,28.92
2022-11-23T21:14:32.948Z,27.13
2022-11-23T21:17:01.150Z,27.42
2022-11-23T21:19:35.616Z,28.05
2022-11-23T21:22:05.167Z,27.70
2022-11-23T21:24:35.099Z,27.10
2022-11-23T21:27:03.856Z,26.30
2022-11-23T21:29:31.657Z,26.77
2022-11-23T21:31:59.092Z,26.60
2022-11-23T21:34:27.483Z,27.08
2022-11-23T21:36:55.623Z,28.13
2022-11-23T21:39:23.781Z,28.13
2022-11-23T21:41:52.341Z,27.50
2022-11-23T21:44:19.941Z,28.35
2022-11-23T21:46:47.500Z,28.08
2022-11-23T21:49:15.009Z,28.05
2022-11-23T21:51:43.746Z,29.42
2022-11-23T21:54:14.290Z,28.23
2022-11-23T21:56:42.797Z,28.70
2022-11-23T21:59:10.413Z,30.15
2022-11-23T22:01:38.542Z,27.92
2022-11-23T22:04:08.956Z,29.02
2022-11-23T22:06:37.091Z,28.50
2022-11-23T22:09:05.136Z,27.33
2022-11-23T22:11:34.083Z,28.95
2022-11-23T22:14:02.539Z,31.27
2022-11-23T22:16:34.337Z,31.70
2022-11-23T22:19:02.037Z,28.88
2022-11-23T22:21:32.508Z,31.13
2022-11-23T22:24:00.363Z,29.35
2022-11-23T22:26:28.088Z,29.13
2022-11-23T22:28:56.104Z,29.60
2022-11-23T22:31:24.872Z,31.00
2022-11-23T22:33:55.167Z,30.30
2022-11-23T22:36:23.645Z,29.77
2022-11-23T22:39:01.028Z,29.77
2022-11-23T22:41:29.892Z,28.58
2022-11-23T22:43:57.423Z,27.85
2022-11-23T22:46:25.815Z,27.75
2022-11-23T22:48:53.706Z,26.98
2022-11-23T22:51:22.605Z,28.40
2022-11-23T22:53:54.071Z,28.13
2022-11-23T22:56:21.632Z,26.67
2022-11-23T22:58:49.598Z,28.13
2022-11-23T23:01:18.264Z,26.98
2022-11-23T23:03:46.070Z,27.77
2022-11-23T23:06:18.074Z,26.73
2022-11-23T23:08:49.064Z,27.52
2022-11-23T23:11:16.600Z,27.15
2022-11-23T23:13:44.058Z,27.75
2022-11-23T23:16:12.845Z,28.67
2022-11-23T23:18:41.347Z,28.27
2022-11-23T23:21:14.397Z,26.88
2022-11-23T23:23:43.847Z,27.63
2022-11-23T23:26:11.886Z,28.33
2022-11-23T23:28:39.583Z,27.50
2022-11-23T23:31:08.245Z,30.60
2022-11-23T23:33:35.859Z,30.30
2022-11-23T23:36:04.718Z,30.00
2022-11-23T23:38:32.765Z,29.33
2022-11-23T23:41:00.570Z,29.90
2022-11-23T23:43:28.897Z,29.92
2022-11-23T23:46:00.114Z,32.67
2022-11-23T23:48:31.522Z,32.20
2022-11-23T23:50:59.645Z,30.25
2022-11-23T23:53:26.986Z,30.48
2022-11-23T23:56:00.300Z,29.98
2022-11-23T23:58:27.897Z,31.05
